Hlavní strana
METAR-TAF:

METAR-TAF

Letiště :

Brescia Ghedi, Itálie

zeměpisná šířka: 45-25N, zeměpisná délka: 010-17E, výška: 102 m

Aktuální stav počasí

Zpráva byla vytvořena před 1 hodinou a 6 minutami, v 03:55 UTC
Východoseverovýchodní vítr 5 kt
Teplota 20°C
Vlhkost vzduchu 78%
Tlak 1019 hPa
Viditelnost 10 km a více
Polojasno ve výšce 6000 ft

METAR: LIPL 270355Z 06005KT 9999 SCT060 20/16 Q1019 RMK BKN VIS MIN 9999 WIND THR31 06006KT WIND THR13 07005KT BLU

Čas: 07:01 (05:01 UTC)


TAF: chybějící

Stav a předpovědi počasí z více než 4 000 letišť (zprávy METAR a TAF).

Červené a žluté tečky na mapě představují dostupné meteorologické stanice.

Když kurzor umístíte na tečku, zobrazí se název stanice.

Pak kliknutím zobrazíte stav a předpověď počasí.

Chcete-li změnit mapu, kliknutím na zelené tlačítko se znaménkem +mapu přiblížíte, kliknutím na zelené tlačítko se znaménkem – mapu oddálíte a kliknutím na zelené šipky přejdete na sousední mapy.


METAR-TAF: